createdAt,value
2019-02-14T00:00:31.211Z,92.86
2019-02-14T00:01:31.385Z,93.22
2019-02-14T00:02:31.528Z,93.18
2019-02-14T00:03:31.851Z,93.07
2019-02-14T00:04:31.912Z,92.90
2019-02-14T00:05:32.032Z,92.96
2019-02-14T00:06:32.195Z,92.96
2019-02-14T00:07:32.363Z,92.96
2019-02-14T00:08:32.543Z,93.07
2019-02-14T00:09:32.703Z,93.18
2019-02-14T00:10:32.872Z,93.07
2019-02-14T00:11:33.036Z,92.33
2019-02-14T00:12:33.204Z,92.65
2019-02-14T00:13:33.349Z,92.33
2019-02-14T00:14:33.484Z,93.59
2019-02-14T00:15:33.578Z,94.01
2019-02-14T00:16:33.886Z,94.23
2019-02-14T00:17:33.982Z,94.08
2019-02-14T00:18:34.242Z,93.91
2019-02-14T00:19:34.419Z,94.29
2019-02-14T00:20:34.534Z,94.49
2019-02-14T00:21:34.666Z,94.60
2019-02-14T00:22:34.775Z,94.71
2019-02-14T00:23:35.019Z,94.60
2019-02-14T00:24:35.254Z,94.98
2019-02-14T00:25:35.390Z,95.02
2019-02-14T00:26:35.539Z,94.71
2019-02-14T00:27:35.662Z,94.81
2019-02-14T00:28:35.924Z,94.49
2019-02-14T00:29:36.142Z,94.29
2019-02-14T00:30:36.241Z,94.39
2019-02-14T00:31:36.507Z,94.01
2019-02-14T00:32:36.622Z,94.01
2019-02-14T00:33:36.830Z,93.07
2019-02-14T00:34:37.107Z,93.38
2019-02-14T00:35:37.198Z,93.07
2019-02-14T00:36:37.476Z,93.07
2019-02-14T00:37:37.676Z,93.18
2019-02-14T00:38:37.794Z,92.76
2019-02-14T00:39:37.912Z,92.65
2019-02-14T00:40:38.079Z,92.58
2019-02-14T00:41:38.276Z,92.65
2019-02-14T00:42:38.437Z,92.90
2019-02-14T00:43:38.589Z,91.96
2019-02-14T00:44:38.749Z,91.43
2019-02-14T00:45:38.902Z,91.74
2019-02-14T00:46:39.070Z,91.96
2019-02-14T00:47:39.230Z,91.96
2019-02-14T00:48:39.371Z,91.68
2019-02-14T00:49:39.521Z,91.85
2019-02-14T00:50:39.684Z,91.89
2019-02-14T00:51:39.865Z,91.36
2019-02-14T00:52:40.048Z,92.21
2019-02-14T00:53:40.181Z,91.78
2019-02-14T00:54:40.342Z,92.10
2019-02-14T00:55:40.486Z,91.47
2019-02-14T00:56:40.669Z,91.89
2019-02-14T00:57:40.870Z,91.68
2019-02-14T00:58:41.011Z,91.78
2019-02-14T00:59:41.192Z,92.00
2019-02-14T01:00:41.353Z,91.47
2019-02-14T01:01:41.516Z,91.58
2019-02-14T01:02:41.659Z,91.47
2019-02-14T01:03:42.344Z,92.21
2019-02-14T01:04:41.979Z,91.47
2019-02-14T01:05:42.142Z,91.58
2019-02-14T01:06:42.324Z,91.78
2019-02-14T01:07:42.486Z,92.84
2019-02-14T01:08:42.640Z,92.84
2019-02-14T01:09:42.788Z,93.26
2019-02-14T01:10:42.961Z,93.68
2019-02-14T01:11:43.110Z,93.37
2019-02-14T01:12:43.272Z,92.94
2019-02-14T01:13:43.455Z,93.15
2019-02-14T01:14:43.608Z,92.94
2019-02-14T01:15:43.771Z,92.73
2019-02-14T01:16:43.901Z,93.05
2019-02-14T01:17:45.218Z,92.77
2019-02-14T01:18:44.314Z,92.52
2019-02-14T01:19:44.737Z,92.63
2019-02-14T01:20:44.856Z,92.52
2019-02-14T01:21:45.074Z,92.35
2019-02-14T01:22:45.261Z,92.88
2019-02-14T01:23:45.463Z,92.94
2019-02-14T01:24:45.680Z,92.67
2019-02-14T01:25:45.784Z,93.74
2019-02-14T01:26:46.832Z,94.62
2019-02-14T01:27:47.106Z,94.31
2019-02-14T01:28:46.283Z,94.42
2019-02-14T01:29:46.442Z,94.52
2019-02-14T01:30:46.660Z,94.42
2019-02-14T01:31:46.804Z,94.21
2019-02-14T01:32:46.959Z,93.62
2019-02-14T01:33:47.111Z,92.84
2019-02-14T01:34:47.276Z,92.84
2019-02-14T01:35:47.406Z,93.05
2019-02-14T01:36:47.578Z,93.47
2019-02-14T01:37:48.275Z,93.26
2019-02-14T01:38:48.961Z,93.89
2019-02-14T01:39:48.182Z,94.21
2019-02-14T01:40:48.340Z,94.31
2019-02-14T01:41:48.483Z,93.99
2019-02-14T01:42:48.673Z,94.14
2019-02-14T01:43:48.812Z,94.21
2019-02-14T01:44:48.933Z,93.99
2019-02-14T01:45:49.156Z,94.10
2019-02-14T01:46:49.428Z,93.89
2019-02-14T01:47:49.606Z,94.10
2019-02-14T01:48:49.787Z,93.79
2019-02-14T01:49:49.923Z,94.21
2019-02-14T01:50:50.050Z,94.10
2019-02-14T01:51:50.210Z,94.10
2019-02-14T01:52:50.376Z,94.21
2019-02-14T01:53:50.499Z,94.90
2019-02-14T01:54:50.773Z,94.79
2019-02-14T01:55:50.901Z,94.73
2019-02-14T01:56:51.043Z,94.27
2019-02-14T01:57:51.321Z,93.85
2019-02-14T01:58:51.432Z,93.89
2019-02-14T01:59:51.579Z,94.31
2019-02-14T02:00:51.672Z,94.42
2019-02-14T02:01:52.922Z,94.21
2019-02-14T02:02:52.076Z,94.21
2019-02-14T02:04:06.961Z,94.17
2019-02-14T02:04:53.336Z,94.21
2019-02-14T02:05:52.560Z,93.37
2019-02-14T02:06:52.672Z,94.42
2019-02-14T02:07:52.918Z,93.68
2019-02-14T02:08:53.039Z,93.47
2019-02-14T02:09:53.203Z,93.15
2019-02-14T02:10:53.357Z,93.05
2019-02-14T02:11:53.490Z,93.26
2019-02-14T02:12:53.737Z,92.46
2019-02-14T02:13:53.885Z,92.73
2019-02-14T02:14:53.991Z,92.77
2019-02-14T02:15:54.239Z,92.77
2019-02-14T02:16:54.466Z,92.88
2019-02-14T02:17:54.591Z,92.67
2019-02-14T02:18:54.768Z,92.57
2019-02-14T02:19:55.877Z,92.88
2019-02-14T02:20:55.101Z,91.93
2019-02-14T02:21:56.961Z,92.46
2019-02-14T02:22:55.380Z,92.77
2019-02-14T02:23:55.615Z,92.67
2019-02-14T02:24:56.843Z,92.08
2019-02-14T02:25:57.061Z,91.93
2019-02-14T02:26:57.304Z,91.51
2019-02-14T02:27:56.534Z,91.87
2019-02-14T02:28:56.665Z,91.97
2019-02-14T02:29:56.846Z,91.87
2019-02-14T02:30:56.992Z,92.50
2019-02-14T02:31:57.159Z,92.82
2019-02-14T02:32:57.315Z,92.92
2019-02-14T02:33:57.453Z,93.19
2019-02-14T02:34:57.606Z,93.09
2019-02-14T02:36:00.512Z,93.13
2019-02-14T02:36:58.877Z,92.82
2019-02-14T02:37:58.057Z,93.13
2019-02-14T02:38:58.188Z,92.99
2019-02-14T02:39:58.316Z,93.03
2019-02-14T02:40:58.426Z,92.92
2019-02-14T02:41:58.609Z,92.82
2019-02-14T02:42:58.717Z,92.61
2019-02-14T02:43:58.988Z,92.82
2019-02-14T02:44:59.075Z,92.82
2019-02-14T02:45:59.316Z,92.40
2019-02-14T02:46:59.578Z,92.86
2019-02-14T02:47:59.702Z,92.96
2019-02-14T02:48:59.819Z,92.92
2019-02-14T02:49:59.943Z,92.50
2019-02-14T02:51:00.072Z,92.71
2019-02-14T02:52:00.205Z,92.96
2019-02-14T02:53:00.392Z,92.54
2019-02-14T02:54:00.551Z,92.96
2019-02-14T02:55:00.739Z,92.96
2019-02-14T02:56:00.919Z,93.13
2019-02-14T02:57:01.078Z,92.96
2019-02-14T02:58:01.288Z,93.07
2019-02-14T02:59:01.537Z,92.54
2019-02-14T03:00:01.681Z,92.65
2019-02-14T03:01:01.828Z,92.65
2019-02-14T03:02:02.003Z,93.38
2019-02-14T03:03:02.432Z,93.18
2019-02-14T03:04:02.390Z,93.87
2019-02-14T03:05:02.536Z,93.66
2019-02-14T03:06:10.229Z,94.29
2019-02-14T03:07:04.940Z,94.40
2019-02-14T03:08:03.186Z,94.50
2019-02-14T03:09:03.329Z,94.29
2019-02-14T03:10:03.507Z,94.50
2019-02-14T03:11:03.671Z,94.40
2019-02-14T03:12:03.822Z,94.60
2019-02-14T03:13:04.009Z,94.08
2019-02-14T03:14:04.172Z,94.50
2019-02-14T03:15:04.354Z,94.29
2019-02-14T03:16:04.538Z,94.29
2019-02-14T03:17:04.695Z,94.18
2019-02-14T03:18:04.885Z,94.29
2019-02-14T03:19:05.102Z,94.29
2019-02-14T03:20:05.287Z,94.29
2019-02-14T03:21:05.411Z,94.29
2019-02-14T03:22:05.560Z,94.25
2019-02-14T03:23:05.721Z,94.29
2019-02-14T03:24:05.871Z,94.50
2019-02-14T03:25:06.884Z,94.35
2019-02-14T03:26:06.240Z,94.18
2019-02-14T03:27:06.365Z,94.25
2019-02-14T03:28:06.473Z,94.40
2019-02-14T03:29:06.770Z,94.29
2019-02-14T03:30:06.909Z,94.14
2019-02-14T03:31:07.014Z,94.40
2019-02-14T03:32:07.273Z,94.60
2019-02-14T03:33:07.400Z,94.25
2019-02-14T03:34:07.663Z,94.35
2019-02-14T03:35:07.819Z,94.25
2019-02-14T03:36:07.994Z,94.25
2019-02-14T03:37:09.144Z,94.35
2019-02-14T03:38:08.280Z,94.04
2019-02-14T03:39:08.501Z,94.14
2019-02-14T03:40:08.628Z,94.14
2019-02-14T03:41:08.768Z,94.25
2019-02-14T03:42:08.974Z,94.04
2019-02-14T03:43:09.158Z,94.14
2019-02-14T03:44:09.323Z,94.40
2019-02-14T03:45:09.477Z,93.76
2019-02-14T03:46:09.687Z,93.41
2019-02-14T03:47:09.850Z,93.55
2019-02-14T03:48:10.062Z,93.45
2019-02-14T03:49:10.251Z,93.62
2019-02-14T03:50:10.410Z,93.66
2019-02-14T03:51:10.576Z,93.24
2019-02-14T03:52:10.738Z,93.09
2019-02-14T03:53:10.901Z,92.50
2019-02-14T03:54:11.089Z,92.82
2019-02-14T03:55:11.279Z,92.61
2019-02-14T03:56:11.490Z,92.57
2019-02-14T03:57:11.691Z,93.19
2019-02-14T03:58:11.857Z,92.71
2019-02-14T03:59:12.060Z,93.24
2019-02-14T04:00:12.235Z,93.13
2019-02-14T04:01:12.362Z,93.13
2019-02-14T04:02:12.510Z,92.71
2019-02-14T04:03:12.697Z,92.82
2019-02-14T04:04:12.859Z,93.03
2019-02-14T04:05:13.010Z,92.50
2019-02-14T04:06:13.191Z,93.13
2019-02-14T04:07:13.368Z,93.13
2019-02-14T04:08:13.504Z,93.03
2019-02-14T04:09:13.629Z,93.34
2019-02-14T04:10:13.758Z,94.25
2019-02-14T04:11:13.905Z,94.29
2019-02-14T04:12:14.017Z,94.29
2019-02-14T04:13:14.279Z,94.29
2019-02-14T04:14:14.417Z,94.46
2019-02-14T04:15:14.559Z,94.35
2019-02-14T04:16:14.693Z,94.88
2019-02-14T04:17:14.836Z,94.88
2019-02-14T04:18:14.996Z,94.35
2019-02-14T04:19:15.145Z,94.67
2019-02-14T04:20:15.329Z,94.46
2019-02-14T04:21:15.517Z,94.88
2019-02-14T04:22:15.685Z,94.78
2019-02-14T04:23:15.859Z,95.09
2019-02-14T04:24:16.051Z,95.40
2019-02-14T04:25:16.261Z,95.20
2019-02-14T04:26:16.464Z,94.98
2019-02-14T04:27:16.612Z,95.20
2019-02-14T04:28:16.806Z,95.30
2019-02-14T04:29:17.001Z,94.98
2019-02-14T04:30:17.179Z,95.09
2019-02-14T04:31:17.362Z,95.09
2019-02-14T04:32:17.549Z,95.09
2019-02-14T04:33:17.745Z,94.88
2019-02-14T04:34:17.930Z,94.46
2019-02-14T04:35:18.072Z,94.56
2019-02-14T04:36:18.268Z,94.56
2019-02-14T04:37:18.466Z,94.35
2019-02-14T04:38:18.699Z,93.93
2019-02-14T04:39:18.891Z,93.93
2019-02-14T04:40:19.046Z,94.25
2019-02-14T04:41:19.201Z,94.46
2019-02-14T04:42:20.378Z,93.93
2019-02-14T04:43:19.472Z,94.25
2019-02-14T04:44:19.669Z,94.14
2019-02-14T04:45:19.830Z,94.25
2019-02-14T04:46:20.005Z,94.18
2019-02-14T04:47:20.149Z,94.18
2019-02-14T04:48:20.319Z,94.25
2019-02-14T04:49:20.475Z,94.29
2019-02-14T04:50:21.612Z,93.76
2019-02-14T04:51:20.889Z,94.60
2019-02-14T04:52:21.063Z,94.40
2019-02-14T04:53:21.199Z,93.76
2019-02-14T04:54:21.336Z,94.40
2019-02-14T04:55:21.483Z,93.45
2019-02-14T04:56:21.632Z,94.18
2019-02-14T04:57:21.763Z,93.45
2019-02-14T04:58:21.890Z,93.34
2019-02-14T04:59:22.064Z,94.40
2019-02-14T05:00:22.211Z,93.19
2019-02-14T05:01:22.381Z,93.76
2019-02-14T05:02:22.577Z,93.55
2019-02-14T05:03:22.735Z,93.55
2019-02-14T05:04:22.885Z,93.66
2019-02-14T05:05:23.870Z,93.66
2019-02-14T05:06:23.275Z,93.34
2019-02-14T05:07:23.425Z,93.13
2019-02-14T05:08:23.620Z,93.24
2019-02-14T05:09:23.775Z,93.24
2019-02-14T05:10:23.933Z,92.65
2019-02-14T05:11:24.118Z,93.13
2019-02-14T05:12:26.156Z,93.28
2019-02-14T05:13:24.510Z,92.71
2019-02-14T05:14:24.672Z,93.24
2019-02-14T05:15:24.859Z,93.70
2019-02-14T05:16:25.029Z,93.70
2019-02-14T05:17:25.181Z,93.60
2019-02-14T05:18:25.378Z,93.18
2019-02-14T05:19:25.487Z,93.28
2019-02-14T05:20:25.693Z,93.18
2019-02-14T05:21:25.861Z,93.38
2019-02-14T05:22:26.012Z,93.18
2019-02-14T05:23:26.161Z,93.38
2019-02-14T05:24:26.329Z,93.60
2019-02-14T05:25:26.520Z,93.70
2019-02-14T05:26:26.671Z,93.70
2019-02-14T05:27:26.877Z,93.18
2019-02-14T05:28:27.047Z,93.18
2019-02-14T05:29:27.180Z,93.60
2019-02-14T05:30:27.349Z,93.28
2019-02-14T05:31:27.526Z,93.32
2019-02-14T05:32:27.670Z,93.74
2019-02-14T05:33:27.801Z,93.74
2019-02-14T05:34:27.982Z,94.54
2019-02-14T05:35:28.161Z,94.34
2019-02-14T05:36:28.331Z,94.23
2019-02-14T05:37:28.459Z,94.23
2019-02-14T05:38:28.595Z,94.23
2019-02-14T05:39:28.757Z,94.12
2019-02-14T05:40:28.954Z,94.23
2019-02-14T05:41:29.107Z,93.91
2019-02-14T05:42:29.248Z,94.65
2019-02-14T05:43:29.364Z,94.40
2019-02-14T05:44:29.552Z,94.50
2019-02-14T05:45:29.742Z,94.29
2019-02-14T05:46:29.880Z,94.50
2019-02-14T05:47:29.999Z,94.50
2019-02-14T05:48:30.154Z,94.50
2019-02-14T05:49:30.350Z,95.20
2019-02-14T05:50:30.555Z,94.46
2019-02-14T05:51:30.693Z,94.50
2019-02-14T05:52:30.848Z,94.78
2019-02-14T05:53:31.029Z,94.98
2019-02-14T05:54:31.992Z,94.67
2019-02-14T05:55:31.414Z,95.20
2019-02-14T05:56:31.539Z,94.98
2019-02-14T05:57:31.691Z,94.78
2019-02-14T05:58:31.882Z,95.20
2019-02-14T05:59:32.014Z,95.30
2019-02-14T06:00:32.167Z,94.78
2019-02-14T06:01:32.344Z,94.94
2019-02-14T06:02:32.558Z,94.94
2019-02-14T06:03:32.707Z,94.88
2019-02-14T06:04:32.837Z,95.04
2019-02-14T06:05:32.970Z,95.09
2019-02-14T06:06:33.123Z,94.98
2019-02-14T06:07:33.264Z,94.94
2019-02-14T06:08:33.419Z,94.88
2019-02-14T06:09:33.602Z,94.84
2019-02-14T06:10:33.734Z,94.56
2019-02-14T06:11:33.902Z,94.46
2019-02-14T06:12:34.091Z,94.31
2019-02-14T06:13:34.239Z,94.04
2019-02-14T06:14:34.430Z,94.35
2019-02-14T06:15:34.576Z,94.56
2019-02-14T06:16:34.725Z,94.56
2019-02-14T06:17:34.917Z,94.25
2019-02-14T06:18:35.071Z,94.04
2019-02-14T06:19:35.236Z,94.08
2019-02-14T06:20:35.409Z,94.29
2019-02-14T06:21:35.547Z,94.56
2019-02-14T06:22:35.724Z,94.25
2019-02-14T06:23:35.904Z,94.46
2019-02-14T06:24:36.058Z,94.56
2019-02-14T06:25:36.237Z,94.50
2019-02-14T06:26:36.374Z,94.50
2019-02-14T06:27:37.496Z,94.40
2019-02-14T06:28:37.382Z,94.50
2019-02-14T06:29:37.975Z,94.18
2019-02-14T06:30:37.197Z,94.14
2019-02-14T06:31:37.371Z,93.87
2019-02-14T06:32:37.500Z,94.18
2019-02-14T06:33:37.780Z,94.29
2019-02-14T06:34:37.940Z,94.40
2019-02-14T06:35:38.054Z,93.66
2019-02-14T06:36:38.208Z,93.45
2019-02-14T06:37:38.328Z,93.28
2019-02-14T06:38:38.559Z,93.13
2019-02-14T06:39:38.811Z,92.76
2019-02-14T06:40:38.937Z,92.76
2019-02-14T06:41:39.096Z,93.07
2019-02-14T06:42:39.201Z,92.86
2019-02-14T06:43:39.356Z,92.86
2019-02-14T06:44:39.449Z,92.54
2019-02-14T06:45:39.738Z,92.65
2019-02-14T06:46:39.809Z,93.07
2019-02-14T06:47:40.103Z,93.01
2019-02-14T06:48:40.236Z,92.02
2019-02-14T06:49:40.369Z,92.27
2019-02-14T06:50:40.508Z,92.12
2019-02-14T06:51:40.645Z,92.27
2019-02-14T06:52:41.368Z,91.96
